createdAt,value
2018-03-14T00:00:46.590Z,81.10
2018-03-14T00:03:19.057Z,81.00
2018-03-14T00:05:51.519Z,81.30
2018-03-14T00:08:24.101Z,81.40
2018-03-14T00:10:56.813Z,81.80
2018-03-14T00:13:30.100Z,81.80
2018-03-14T00:16:02.574Z,82.30
2018-03-14T00:18:35.874Z,82.10
2018-03-14T00:21:08.748Z,82.10
2018-03-14T00:23:41.318Z,82.40
2018-03-14T00:26:13.850Z,82.20
2018-03-14T00:28:46.348Z,82.50
2018-03-14T00:31:18.894Z,82.20
2018-03-14T00:33:51.321Z,82.90
2018-03-14T00:36:25.319Z,83.20
2018-03-14T00:38:58.354Z,83.40
2018-03-14T00:41:30.999Z,83.50
2018-03-14T00:44:03.755Z,83.20
2018-03-14T00:46:36.560Z,83.20
2018-03-14T00:49:09.418Z,82.00
2018-03-14T00:51:42.140Z,81.90
2018-03-14T00:54:15.047Z,81.80
2018-03-14T00:56:47.764Z,81.80
2018-03-14T00:59:21.012Z,82.10
2018-03-14T01:01:53.683Z,82.10
2018-03-14T01:04:26.255Z,81.70
2018-03-14T01:06:58.882Z,81.80
2018-03-14T01:09:31.330Z,81.90
2018-03-14T01:12:03.870Z,82.50
2018-03-14T01:14:37.033Z,82.70
2018-03-14T01:17:09.611Z,82.70
2018-03-14T01:19:41.960Z,82.70
2018-03-14T01:22:14.666Z,82.80
2018-03-14T01:24:47.073Z,83.00
2018-03-14T01:27:20.420Z,84.00
2018-03-14T01:29:53.193Z,83.90
2018-03-14T01:32:25.936Z,84.00
2018-03-14T01:34:58.607Z,83.80
2018-03-14T01:37:31.372Z,83.80
2018-03-14T01:40:04.065Z,83.50
2018-03-14T01:42:37.510Z,82.50
2018-03-14T01:45:10.523Z,83.00
2018-03-14T01:47:43.089Z,83.30
2018-03-14T01:50:15.696Z,83.50
2018-03-14T01:52:49.020Z,83.90
2018-03-14T01:55:21.701Z,83.90
2018-03-14T01:57:55.057Z,83.90
2018-03-14T02:00:28.319Z,84.10
2018-03-14T02:03:01.207Z,84.10
2018-03-14T02:05:33.952Z,84.60
2018-03-14T02:08:07.525Z,83.90
2018-03-14T02:10:40.874Z,83.90
2018-03-14T02:13:13.722Z,83.90
2018-03-14T02:15:46.291Z,83.80
2018-03-14T02:18:18.799Z,83.80
2018-03-14T02:20:51.206Z,83.80
2018-03-14T02:23:23.578Z,83.40
2018-03-14T02:25:56.192Z,83.30
2018-03-14T02:28:28.976Z,83.70
2018-03-14T02:31:01.402Z,83.80
2018-03-14T02:33:34.866Z,83.60
2018-03-14T02:36:07.604Z,83.60
2018-03-14T02:38:41.427Z,83.80
2018-03-14T02:41:15.287Z,84.00
2018-03-14T02:43:48.287Z,84.00
2018-03-14T02:46:21.725Z,83.70
2018-03-14T02:48:54.848Z,83.70
2018-03-14T02:51:27.272Z,83.60
2018-03-14T02:54:00.683Z,84.20
2018-03-14T02:56:33.813Z,84.20
2018-03-14T02:59:06.511Z,84.30
2018-03-14T03:01:39.133Z,84.50
2018-03-14T03:04:11.601Z,84.20
2018-03-14T03:06:44.176Z,84.00
2018-03-14T03:09:17.786Z,84.10
2018-03-14T03:11:50.775Z,84.10
2018-03-14T03:14:23.447Z,83.90
2018-03-14T03:16:56.163Z,83.80
2018-03-14T03:19:28.868Z,83.70
2018-03-14T03:22:01.195Z,83.90
2018-03-14T03:24:34.488Z,83.70
2018-03-14T03:27:07.198Z,83.70
2018-03-14T03:29:39.634Z,84.10
2018-03-14T03:32:12.403Z,83.90
2018-03-14T03:34:45.708Z,83.60
2018-03-14T03:37:18.122Z,83.60
2018-03-14T03:39:50.558Z,83.60
2018-03-14T03:42:22.953Z,83.50
2018-03-14T03:44:55.596Z,83.40
2018-03-14T03:47:28.660Z,83.30
2018-03-14T03:50:01.278Z,83.30
2018-03-14T03:52:34.708Z,83.90
2018-03-14T03:55:07.558Z,83.80
2018-03-14T03:57:40.880Z,83.90
2018-03-14T04:00:14.459Z,83.90
2018-03-14T04:02:47.138Z,83.90
2018-03-14T04:05:19.825Z,83.80
2018-03-14T04:07:52.534Z,83.90
2018-03-14T04:10:25.890Z,84.20
2018-03-14T04:12:58.622Z,84.30
2018-03-14T04:15:37.927Z,84.80
2018-03-14T04:18:10.856Z,84.50
2018-03-14T04:20:43.546Z,84.50
2018-03-14T04:23:16.357Z,84.50
2018-03-14T04:25:49.150Z,84.50
2018-03-14T04:28:23.125Z,84.60
2018-03-14T04:30:56.211Z,84.50
2018-03-14T04:33:28.892Z,84.50
2018-03-14T04:36:01.442Z,84.50
2018-03-14T04:38:34.766Z,84.50
2018-03-14T04:41:07.440Z,84.50
2018-03-14T04:43:40.568Z,84.50
2018-03-14T04:46:14.070Z,84.60
2018-03-14T04:48:46.882Z,84.50
2018-03-14T04:51:19.362Z,84.70
2018-03-14T04:53:51.824Z,84.70
2018-03-14T04:56:24.541Z,84.80
2018-03-14T04:58:57.723Z,84.50
2018-03-14T05:01:30.512Z,84.50
2018-03-14T05:04:03.759Z,84.50
2018-03-14T05:06:37.434Z,84.70
2018-03-14T05:09:11.148Z,84.80
2018-03-14T05:11:44.239Z,84.70
2018-03-14T05:14:17.706Z,84.70
2018-03-14T05:16:51.154Z,84.70
2018-03-14T05:19:24.947Z,84.70
2018-03-14T05:21:57.918Z,84.70
2018-03-14T05:24:31.227Z,84.80
2018-03-14T05:27:04.118Z,84.80
2018-03-14T05:29:36.792Z,85.60
2018-03-14T05:32:09.420Z,84.80
2018-03-14T05:34:42.089Z,84.90
2018-03-14T05:37:15.799Z,84.90
2018-03-14T05:39:48.604Z,84.90
2018-03-14T05:42:21.446Z,85.00
2018-03-14T05:44:53.975Z,85.00
2018-03-14T05:47:27.332Z,84.70
2018-03-14T05:50:00.167Z,84.70
2018-03-14T05:52:32.655Z,84.70
2018-03-14T05:55:05.926Z,85.10
2018-03-14T05:57:39.168Z,84.80
2018-03-14T06:00:11.730Z,84.80
2018-03-14T06:02:44.565Z,84.90
2018-03-14T06:05:17.735Z,85.00
2018-03-14T06:07:50.290Z,84.90
2018-03-14T06:10:23.481Z,85.00
2018-03-14T06:12:56.188Z,85.00
2018-03-14T06:15:28.617Z,85.10
2018-03-14T06:18:01.186Z,84.70
2018-03-14T06:20:34.741Z,84.80
2018-03-14T06:23:07.818Z,84.80
2018-03-14T06:25:40.989Z,85.60
2018-03-14T06:28:14.643Z,85.70
2018-03-14T06:30:47.424Z,85.70
2018-03-14T06:33:19.985Z,85.00
2018-03-14T06:35:53.680Z,84.20
2018-03-14T06:38:26.716Z,84.20
2018-03-14T06:40:59.339Z,83.40
2018-03-14T06:43:32.159Z,83.30
2018-03-14T06:46:05.558Z,83.20
2018-03-14T06:48:38.556Z,83.20
2018-03-14T06:51:11.778Z,83.10
2018-03-14T06:53:44.687Z,83.10
2018-03-14T06:56:17.494Z,83.20
2018-03-14T06:59:08.723Z,83.40
2018-03-14T07:02:00.991Z,83.10
2018-03-14T07:04:40.930Z,83.10
2018-03-14T07:07:13.887Z,83.30
2018-03-14T07:09:46.979Z,83.40
2018-03-14T07:12:20.491Z,83.20
2018-03-14T07:14:53.757Z,83.20
2018-03-14T07:17:26.404Z,83.20
2018-03-14T07:19:59.290Z,83.20
2018-03-14T07:22:32.448Z,83.00
2018-03-14T07:25:05.748Z,82.80
2018-03-14T07:27:39.292Z,82.70
2018-03-14T07:30:12.812Z,83.00
2018-03-14T07:32:45.576Z,82.90
2018-03-14T07:35:19.086Z,83.90
2018-03-14T07:37:51.871Z,83.60
2018-03-14T07:40:24.684Z,83.30
2018-03-14T07:42:57.998Z,83.30
2018-03-14T07:45:31.603Z,83.30
2018-03-14T07:48:05.048Z,82.90
2018-03-14T07:50:38.697Z,82.80
2018-03-14T07:53:11.661Z,82.80
2018-03-14T07:55:44.082Z,82.70
2018-03-14T07:58:16.442Z,82.70
2018-03-14T08:00:49.076Z,82.60
2018-03-14T08:03:22.431Z,82.80
2018-03-14T08:05:55.120Z,82.80
2018-03-14T08:08:28.635Z,83.00
2018-03-14T08:11:01.670Z,83.00
2018-03-14T08:13:34.573Z,83.00
2018-03-14T08:16:07.108Z,83.10
2018-03-14T08:18:39.760Z,83.10
2018-03-14T08:21:12.632Z,82.90
2018-03-14T08:23:45.178Z,82.90
2018-03-14T08:26:18.673Z,83.00
2018-03-14T08:28:51.120Z,82.90
2018-03-14T08:31:23.663Z,83.10
2018-03-14T08:33:56.924Z,83.20
2018-03-14T08:36:30.269Z,83.30
2018-03-14T08:39:02.714Z,83.20
2018-03-14T08:41:35.359Z,82.90
2018-03-14T08:44:08.598Z,82.70
2018-03-14T08:46:40.996Z,83.00
2018-03-14T08:49:13.339Z,83.50
2018-03-14T08:51:45.810Z,84.30
2018-03-14T08:54:18.146Z,83.40
2018-03-14T08:56:50.792Z,82.90
2018-03-14T08:59:24.026Z,82.90
2018-03-14T09:01:56.888Z,82.90
2018-03-14T09:04:29.299Z,82.80
2018-03-14T09:07:02.689Z,82.40
2018-03-14T09:09:35.299Z,82.30
2018-03-14T09:12:07.985Z,82.20
2018-03-14T09:14:41.833Z,82.40
2018-03-14T09:17:14.861Z,82.40
2018-03-14T09:19:48.238Z,83.20
2018-03-14T09:22:20.926Z,83.00
2018-03-14T09:24:53.547Z,82.90
2018-03-14T09:27:26.317Z,83.00
2018-03-14T09:29:59.136Z,81.60
2018-03-14T09:32:31.897Z,80.50
2018-03-14T09:35:05.941Z,79.90
2018-03-14T09:37:39.368Z,79.90
2018-03-14T09:40:12.042Z,79.90
2018-03-14T09:42:45.413Z,80.00
2018-03-14T09:45:18.747Z,78.20
2018-03-14T09:47:51.516Z,78.20
2018-03-14T09:50:24.536Z,77.70
2018-03-14T09:52:57.119Z,77.80
2018-03-14T09:55:30.344Z,76.90
2018-03-14T09:58:03.127Z,76.80
2018-03-14T10:00:35.614Z,76.20
2018-03-14T10:03:08.098Z,76.70
2018-03-14T10:05:40.490Z,76.70
2018-03-14T10:08:13.773Z,76.70
2018-03-14T10:10:46.315Z,76.60
2018-03-14T10:13:18.852Z,76.70
2018-03-14T10:15:51.264Z,77.10
2018-03-14T10:18:23.998Z,76.70
2018-03-14T10:20:57.269Z,76.50
2018-03-14T10:23:30.358Z,77.60
2018-03-14T10:26:03.226Z,77.60
2018-03-14T10:28:35.704Z,78.20
2018-03-14T10:31:09.040Z,79.10
2018-03-14T10:33:42.299Z,79.00
2018-03-14T10:36:15.244Z,79.80
2018-03-14T10:38:47.965Z,79.90
2018-03-14T10:41:21.473Z,79.70
2018-03-14T10:43:54.862Z,78.80
2018-03-14T10:46:27.711Z,78.60
2018-03-14T10:49:00.299Z,77.90
2018-03-14T10:51:32.691Z,77.00
2018-03-14T10:54:05.294Z,76.20
2018-03-14T10:56:39.039Z,76.10
2018-03-14T10:59:11.856Z,76.10
2018-03-14T11:01:46.297Z,76.70
2018-03-14T11:04:18.907Z,75.80
2018-03-14T11:06:52.157Z,75.60
2018-03-14T11:09:24.993Z,75.10
2018-03-14T11:11:58.340Z,74.30
2018-03-14T11:14:31.633Z,74.50
2018-03-14T11:17:04.589Z,73.80
2018-03-14T11:19:37.083Z,74.60
2018-03-14T11:22:10.683Z,71.70
2018-03-14T11:24:43.816Z,71.90
2018-03-14T11:27:17.081Z,70.60
2018-03-14T11:29:49.901Z,70.60
2018-03-14T11:32:23.357Z,71.10
2018-03-14T11:34:56.496Z,70.70
2018-03-14T11:37:29.139Z,70.70
2018-03-14T11:40:02.006Z,70.80
2018-03-14T11:42:34.545Z,70.40
2018-03-14T11:45:07.672Z,70.80
2018-03-14T11:47:40.655Z,69.80
2018-03-14T11:50:14.020Z,68.70
2018-03-14T11:52:47.070Z,68.70
2018-03-14T11:55:19.797Z,67.50
2018-03-14T11:57:52.797Z,67.20
2018-03-14T12:00:25.800Z,66.50
2018-03-14T12:02:58.315Z,66.00
2018-03-14T12:05:30.751Z,66.60
2018-03-14T12:08:04.161Z,66.60
2018-03-14T12:10:37.531Z,67.00
2018-03-14T12:13:10.877Z,67.60
2018-03-14T12:15:43.453Z,67.10
2018-03-14T12:18:16.070Z,65.80
2018-03-14T12:20:49.256Z,64.80
2018-03-14T12:23:21.907Z,64.80
2018-03-14T12:25:54.518Z,64.20
2018-03-14T12:28:26.911Z,64.20
2018-03-14T12:30:59.396Z,65.60
2018-03-14T12:33:32.667Z,66.00
2018-03-14T12:36:05.340Z,66.20
2018-03-14T12:38:38.500Z,66.40
2018-03-14T12:41:10.994Z,66.70
2018-03-14T12:43:43.532Z,66.50
2018-03-14T12:46:16.273Z,64.70
2018-03-14T12:48:48.603Z,64.60
2018-03-14T12:51:21.471Z,64.60
2018-03-14T12:53:54.722Z,63.20
2018-03-14T12:56:27.748Z,63.20
2018-03-14T12:59:00.808Z,63.80
2018-03-14T13:01:33.748Z,63.60
2018-03-14T13:04:07.240Z,63.50
2018-03-14T13:06:40.204Z,63.50
2018-03-14T13:09:12.576Z,64.50
2018-03-14T13:11:45.533Z,62.80
2018-03-14T13:14:19.501Z,61.40
2018-03-14T13:16:52.203Z,61.40
2018-03-14T13:19:24.600Z,62.60
2018-03-14T13:21:57.045Z,63.30
2018-03-14T13:24:29.478Z,64.30
2018-03-14T13:27:02.247Z,64.50
2018-03-14T13:29:35.422Z,63.70
2018-03-14T13:32:08.208Z,63.60
2018-03-14T13:34:40.674Z,63.00
2018-03-14T13:37:13.198Z,62.30
2018-03-14T13:39:45.660Z,61.00
2018-03-14T13:42:18.113Z,61.60
2018-03-14T13:44:50.650Z,61.60
2018-03-14T13:47:24.744Z,61.40
2018-03-14T13:49:57.329Z,61.10
2018-03-14T13:52:29.855Z,60.40
2018-03-14T13:55:02.367Z,59.20
2018-03-14T13:57:34.837Z,60.00
2018-03-14T14:00:09.110Z,59.70
2018-03-14T14:02:42.127Z,60.50
2018-03-14T14:05:15.470Z,61.70
2018-03-14T14:07:48.692Z,61.70
2018-03-14T14:10:21.919Z,61.00
2018-03-14T14:12:54.370Z,61.30
2018-03-14T14:15:27.897Z,62.10
2018-03-14T14:18:00.825Z,62.10
2018-03-14T14:20:33.361Z,62.00
2018-03-14T14:23:05.808Z,61.40
2018-03-14T14:25:38.344Z,61.70
2018-03-14T14:28:10.760Z,62.10
2018-03-14T14:30:43.262Z,62.50
2018-03-14T14:33:15.967Z,62.90
2018-03-14T14:35:49.195Z,63.00
2018-03-14T14:38:23.282Z,62.80
2018-03-14T14:40:56.013Z,62.80
2018-03-14T14:43:28.648Z,61.70
2018-03-14T14:46:01.875Z,61.80
2018-03-14T14:48:35.377Z,62.20
2018-03-14T14:51:08.950Z,61.20
2018-03-14T14:53:41.710Z,61.20
2018-03-14T14:56:15.081Z,62.00
2018-03-14T14:58:47.555Z,62.10
2018-03-14T15:01:20.040Z,62.10
2018-03-14T15:03:52.766Z,63.40
2018-03-14T15:06:25.322Z,61.80
2018-03-14T15:08:59.381Z,63.00
2018-03-14T15:11:32.246Z,62.90
2018-03-14T15:14:04.921Z,63.30
2018-03-14T15:16:37.400Z,64.30
2018-03-14T15:19:10.495Z,64.20
2018-03-14T15:21:43.711Z,64.00
2018-03-14T15:24:17.007Z,64.00
2018-03-14T15:26:49.408Z,63.10
2018-03-14T15:29:22.788Z,62.40
2018-03-14T15:31:55.784Z,62.40
2018-03-14T15:34:28.339Z,63.00
2018-03-14T15:37:02.410Z,63.50
2018-03-14T15:39:34.901Z,63.50
2018-03-14T15:42:07.388Z,64.10
2018-03-14T15:44:39.945Z,64.50
2018-03-14T15:47:13.055Z,64.00
2018-03-14T15:49:45.846Z,64.00
2018-03-14T15:52:19.009Z,62.80
2018-03-14T15:54:51.807Z,62.80
2018-03-14T15:57:24.263Z,63.30
2018-03-14T15:59:56.663Z,62.70
2018-03-14T16:02:29.861Z,63.20
2018-03-14T16:05:02.575Z,63.00
2018-03-14T16:07:34.935Z,62.50
2018-03-14T16:10:07.507Z,62.60
2018-03-14T16:12:40.759Z,63.40
2018-03-14T16:15:14.155Z,63.90
2018-03-14T16:17:46.702Z,63.80
2018-03-14T16:20:19.200Z,65.30
2018-03-14T16:22:51.652Z,65.10
2018-03-14T16:25:25.224Z,66.30
2018-03-14T16:27:58.494Z,65.90
2018-03-14T16:30:32.368Z,66.50
2018-03-14T16:33:05.552Z,66.60
2018-03-14T16:35:38.520Z,66.50
2018-03-14T16:38:11.131Z,67.00
2018-03-14T16:40:45.101Z,67.00
2018-03-14T16:43:18.478Z,66.80
2018-03-14T16:45:51.861Z,66.80
2018-03-14T16:48:24.363Z,67.00
2018-03-14T16:50:56.797Z,67.40
2018-03-14T16:53:29.289Z,67.20
2018-03-14T16:56:01.795Z,67.50
2018-03-14T16:58:34.408Z,67.90
2018-03-14T17:01:07.809Z,68.30
2018-03-14T17:03:41.998Z,69.00
2018-03-14T17:06:15.469Z,68.80
2018-03-14T17:08:48.055Z,68.70
2018-03-14T17:11:22.262Z,68.90
2018-03-14T17:13:56.293Z,68.90
2018-03-14T17:16:30.202Z,68.80
2018-03-14T17:19:03.407Z,69.50
2018-03-14T17:21:36.999Z,69.60
2018-03-14T17:24:11.165Z,70.00
2018-03-14T17:26:44.740Z,70.00
2018-03-14T17:29:18.592Z,70.20
2018-03-14T17:31:52.899Z,71.10
2018-03-14T17:34:26.748Z,70.60
2018-03-14T17:37:00.370Z,70.70
2018-03-14T17:39:33.666Z,71.50
2018-03-14T17:42:08.533Z,71.90
2018-03-14T17:44:41.892Z,71.80
2018-03-14T17:47:16.545Z,71.90
2018-03-14T17:49:50.699Z,72.30
2018-03-14T17:52:25.945Z,72.50
2018-03-14T17:55:00.961Z,72.40
2018-03-14T17:57:36.586Z,72.60
2018-03-14T18:00:11.967Z,72.60
2018-03-14T18:02:46.827Z,72.60
2018-03-14T18:05:21.429Z,72.80
2018-03-14T18:07:56.645Z,72.90
2018-03-14T18:10:31.234Z,73.00
2018-03-14T18:13:05.525Z,73.30
2018-03-14T18:15:40.244Z,73.60
2018-03-14T18:18:14.392Z,74.10
2018-03-14T18:20:48.871Z,74.00
2018-03-14T18:23:24.909Z,74.30
2018-03-14T18:26:00.466Z,74.60
2018-03-14T18:28:35.653Z,74.60
2018-03-14T18:31:09.887Z,74.80
2018-03-14T18:33:44.338Z,74.80
2018-03-14T18:36:18.421Z,75.00
2018-03-14T18:38:53.906Z,75.70
2018-03-14T18:41:29.353Z,75.60
2018-03-14T18:44:05.063Z,75.80
2018-03-14T18:46:40.489Z,75.60
2018-03-14T18:49:15.637Z,75.60
2018-03-14T18:51:50.706Z,75.70
2018-03-14T18:54:26.621Z,75.80
2018-03-14T18:57:01.447Z,75.80
2018-03-14T18:59:37.480Z,76.70
2018-03-14T19:02:12.020Z,76.70
2018-03-14T19:04:47.668Z,76.70
2018-03-14T19:07:23.117Z,76.70
2018-03-14T19:09:59.188Z,77.20
2018-03-14T19:12:34.482Z,77.20
2018-03-14T19:15:09.752Z,77.40
2018-03-14T19:17:44.772Z,77.80
2018-03-14T19:20:19.779Z,78.10
2018-03-14T19:22:54.452Z,78.10
2018-03-14T19:25:30.478Z,78.50
2018-03-14T19:28:05.369Z,78.30
2018-03-14T19:30:40.675Z,78.80
2018-03-14T19:33:15.954Z,79.00
2018-03-14T19:35:52.306Z,79.30
2018-03-14T19:38:28.011Z,79.60
2018-03-14T19:41:03.546Z,79.80
2018-03-14T19:43:38.799Z,80.10
2018-03-14T19:46:14.696Z,79.70
2018-03-14T19:48:53.140Z,80.00
2018-03-14T19:51:27.796Z,79.90
2018-03-14T19:54:03.008Z,80.20
2018-03-14T19:56:38.986Z,80.60
2018-03-14T19:59:13.174Z,80.60
2018-03-14T20:01:48.437Z,81.20
2018-03-14T20:04:24.977Z,81.30
2018-03-14T20:07:00.186Z,81.20
2018-03-14T20:09:34.848Z,81.10
2018-03-14T20:12:09.499Z,81.10
2018-03-14T20:14:45.199Z,82.30
2018-03-14T20:17:21.477Z,81.50
2018-03-14T20:19:56.332Z,81.90
2018-03-14T20:22:32.111Z,82.00
2018-03-14T20:25:07.125Z,82.20
2018-03-14T20:27:42.176Z,82.10
2018-03-14T20:30:17.677Z,82.10
2018-03-14T20:32:53.004Z,82.30
2018-03-14T20:35:28.237Z,82.30
2018-03-14T20:38:02.825Z,82.30
2018-03-14T20:40:38.065Z,82.50
2018-03-14T20:43:12.429Z,82.50
2018-03-14T20:45:46.822Z,82.60
2018-03-14T20:48:21.336Z,82.40
2018-03-14T20:50:56.362Z,82.30
2018-03-14T20:53:32.575Z,82.50
2018-03-14T20:56:09.972Z,82.50
2018-03-14T20:58:45.566Z,82.60
2018-03-14T21:01:21.192Z,82.60
2018-03-14T21:03:55.509Z,82.60
2018-03-14T21:06:30.754Z,82.50
2018-03-14T21:09:05.883Z,82.50
2018-03-14T21:11:41.472Z,82.30
2018-03-14T21:14:17.463Z,82.30
2018-03-14T21:16:52.084Z,82.30
2018-03-14T21:19:27.517Z,82.40
2018-03-14T21:22:01.894Z,82.60
2018-03-14T21:24:36.681Z,83.10
2018-03-14T21:27:11.314Z,83.30
2018-03-14T21:29:45.862Z,83.30
2018-03-14T21:32:20.826Z,83.20
2018-03-14T21:34:55.610Z,83.20
2018-03-14T21:37:30.661Z,82.60
2018-03-14T21:40:05.785Z,83.20
2018-03-14T21:42:40.639Z,83.20
2018-03-14T21:45:15.101Z,83.20
2018-03-14T21:47:51.268Z,83.20
2018-03-14T21:50:26.112Z,83.10
2018-03-14T21:53:00.904Z,83.10
2018-03-14T21:55:40.460Z,83.30
2018-03-14T21:58:15.538Z,83.80
2018-03-14T22:00:50.995Z,84.10
2018-03-14T22:03:26.492Z,84.40
2018-03-14T22:06:01.150Z,84.40
2018-03-14T22:08:36.628Z,84.50
2018-03-14T22:11:11.999Z,84.40
2018-03-14T22:13:46.743Z,84.30
2018-03-14T22:16:21.150Z,84.20
2018-03-14T22:18:55.682Z,84.00
2018-03-14T22:21:29.711Z,83.80
2018-03-14T22:24:03.195Z,83.60
2018-03-14T22:26:36.267Z,83.40
2018-03-14T22:29:10.152Z,83.20
2018-03-14T22:31:43.412Z,83.60
2018-03-14T22:34:16.153Z,83.30
2018-03-14T22:36:49.786Z,83.60
2018-03-14T22:39:22.523Z,83.60
2018-03-14T22:41:55.505Z,83.60
2018-03-14T22:44:28.066Z,83.80
2018-03-14T22:47:00.728Z,83.90
2018-03-14T22:49:34.810Z,84.00
2018-03-14T22:52:08.288Z,84.00
2018-03-14T22:54:41.035Z,84.00
2018-03-14T22:57:13.629Z,84.00
2018-03-14T22:59:46.284Z,84.30
2018-03-14T23:02:18.944Z,84.90
2018-03-14T23:04:51.501Z,84.40
2018-03-14T23:07:24.124Z,84.30
2018-03-14T23:09:56.676Z,84.20
2018-03-14T23:12:29.805Z,83.90
2018-03-14T23:15:02.529Z,83.90
2018-03-14T23:17:34.971Z,83.80
2018-03-14T23:20:08.218Z,84.10
2018-03-14T23:22:41.862Z,84.10
2018-03-14T23:25:14.660Z,84.10
2018-03-14T23:27:47.252Z,84.10
2018-03-14T23:30:19.663Z,84.10
2018-03-14T23:32:52.890Z,84.20
2018-03-14T23:35:25.737Z,84.20
2018-03-14T23:37:58.226Z,84.20
2018-03-14T23:40:31.302Z,84.10
2018-03-14T23:43:05.332Z,84.10
2018-03-14T23:45:38.076Z,84.20
2018-03-14T23:48:10.710Z,84.20
